Crabtree, Oregon
Current Conditions -  °F | °C
As of 9:56 PM on Thursday 27 Nov 2014 (Local Time) from KSLE Reporting Station
Overcast Overcast  
Wind Chill: 54°   Ceiling: 3700
Heat Index: 54°   Visibility: 10mi
Dew Point: 49°   Wind: 14mph
Humidity: 83%   Direction: 190°S
Pressure: 29.85"   Gusts: 26mph
Location:  44.63°N, 122.9°W
Report Text: KSLE 280556Z AUTO 19012G23KT 10SM FEW026 OVC037 12/09 A2985 RMK AO2 RAB23E48 SLP108 P0001 60001 T01220094 10128 20117 58011
Loading
Personal Weather Stations






























Interactive Weather Map New forecast layout! Learn more

10-Day Weather Forecast

Advertisements
Track Severe Weather on mobile